createdAt,value
2018-07-28T00:00:11.981Z,9.40
2018-07-28T00:02:41.798Z,8.83
2018-07-28T00:05:11.655Z,9.33
2018-07-28T00:07:41.696Z,8.57
2018-07-28T00:10:13.538Z,9.53
2018-07-28T00:12:43.949Z,9.17
2018-07-28T00:15:13.954Z,8.07
2018-07-28T00:17:45.219Z,8.03
2018-07-28T00:20:15.070Z,8.77
2018-07-28T00:22:44.639Z,9.07
2018-07-28T00:25:14.365Z,9.03
2018-07-28T00:27:44.349Z,9.27
2018-07-28T00:30:14.043Z,9.57
2018-07-28T00:32:43.686Z,8.97
2018-07-28T00:35:13.215Z,9.27
2018-07-28T00:37:42.802Z,9.67
2018-07-28T00:40:12.620Z,9.00
2018-07-28T00:42:42.341Z,9.80
2018-07-28T00:45:11.782Z,9.60
2018-07-28T00:47:41.242Z,10.47
2018-07-28T00:50:11.179Z,9.93
2018-07-28T00:52:40.988Z,10.23
2018-07-28T00:55:10.324Z,8.93
2018-07-28T00:57:39.937Z,9.27
2018-07-28T01:00:09.530Z,9.53
2018-07-28T01:02:39.116Z,11.13
2018-07-28T01:05:09.190Z,9.60
2018-07-28T01:07:38.855Z,9.60
2018-07-28T01:10:08.870Z,10.80
2018-07-28T01:12:38.948Z,9.83
2018-07-28T01:15:10.888Z,10.83
2018-07-28T01:17:40.745Z,10.07
2018-07-28T01:20:12.193Z,9.93
2018-07-28T01:22:41.952Z,9.10
2018-07-28T01:25:12.280Z,9.80
2018-07-28T01:27:41.831Z,9.23
2018-07-28T01:30:15.400Z,10.10
2018-07-28T01:32:44.991Z,11.50
2018-07-28T01:35:14.450Z,12.57
2018-07-28T01:37:44.042Z,11.03
2018-07-28T01:40:13.530Z,10.53
2018-07-28T01:42:43.535Z,10.80
2018-07-28T01:45:13.104Z,10.63
2018-07-28T01:47:42.724Z,10.87
2018-07-28T01:50:12.362Z,10.97
2018-07-28T01:52:42.647Z,11.70
2018-07-28T01:55:12.195Z,12.20
2018-07-28T01:57:41.959Z,11.17
2018-07-28T02:00:11.350Z,11.10
2018-07-28T02:02:40.954Z,11.33
2018-07-28T02:05:10.968Z,12.00
2018-07-28T02:07:40.468Z,11.43
2018-07-28T02:10:10.636Z,12.57
2018-07-28T02:12:40.474Z,11.10
2018-07-28T02:15:09.962Z,12.17
2018-07-28T02:17:40.540Z,12.13
2018-07-28T02:20:10.054Z,12.70
2018-07-28T02:22:39.629Z,13.40
2018-07-28T02:25:10.946Z,11.87
2018-07-28T02:27:40.460Z,11.77
2018-07-28T02:30:09.989Z,11.33
2018-07-28T02:32:39.623Z,12.90
2018-07-28T02:35:09.444Z,12.53
2018-07-28T02:37:38.854Z,12.70
2018-07-28T02:40:08.290Z,11.37
2018-07-28T02:42:37.888Z,10.40
2018-07-28T02:45:07.959Z,10.73
2018-07-28T02:47:38.634Z,12.13
2018-07-28T02:50:09.172Z,12.77
2018-07-28T02:52:38.779Z,12.23
2018-07-28T02:55:09.430Z,12.83
2018-07-28T02:57:38.879Z,12.53
2018-07-28T03:00:09.283Z,13.37
2018-07-28T03:02:38.906Z,13.37
2018-07-28T03:05:08.873Z,12.47
2018-07-28T03:07:38.431Z,11.60
2018-07-28T03:10:08.890Z,12.03
2018-07-28T03:12:37.712Z,12.87
2018-07-28T03:15:35.057Z,12.23
2018-07-28T03:18:06.284Z,13.53
2018-07-28T03:20:35.623Z,15.47
2018-07-28T03:23:05.525Z,13.57
2018-07-28T03:25:34.662Z,11.60
2018-07-28T03:28:04.177Z,11.70
2018-07-28T03:30:33.645Z,13.17
2018-07-28T03:33:02.445Z,11.70
2018-07-28T03:35:33.977Z,12.27
2018-07-28T03:38:03.572Z,12.50
2018-07-28T03:40:33.118Z,13.33
2018-07-28T03:43:02.510Z,13.00
2018-07-28T03:45:32.143Z,13.47
2018-07-28T03:48:02.644Z,14.50
2018-07-28T03:50:31.941Z,14.57
2018-07-28T03:53:02.017Z,15.07
2018-07-28T03:55:31.800Z,14.80
2018-07-28T03:58:01.314Z,14.00
2018-07-28T04:00:31.121Z,13.07
2018-07-28T04:03:00.446Z,12.60
2018-07-28T04:05:29.939Z,10.83
2018-07-28T04:07:59.391Z,11.00
2018-07-28T04:10:29.060Z,10.57
2018-07-28T04:12:59.376Z,10.60
2018-07-28T04:15:28.884Z,11.57
2018-07-28T04:17:58.971Z,10.33
2018-07-28T04:20:28.577Z,11.47
2018-07-28T04:22:58.166Z,10.53
2018-07-28T04:25:27.796Z,10.00
2018-07-28T04:27:57.259Z,9.80
2018-07-28T04:30:26.936Z,9.30
2018-07-28T04:32:56.389Z,9.47
2018-07-28T04:35:25.986Z,10.30
2018-07-28T04:37:55.553Z,9.60
2018-07-28T04:40:24.930Z,9.13
2018-07-28T04:42:54.494Z,9.10
2018-07-28T04:45:24.014Z,8.83
2018-07-28T04:47:53.581Z,8.37
2018-07-28T04:50:23.206Z,7.93
2018-07-28T04:52:52.820Z,8.50
2018-07-28T04:55:22.340Z,7.03
2018-07-28T04:57:52.153Z,7.77
2018-07-28T05:00:21.352Z,7.30
2018-07-28T05:02:52.008Z,7.33
2018-07-28T05:05:21.475Z,7.33
2018-07-28T05:07:51.061Z,7.07
2018-07-28T05:10:21.420Z,7.40
2018-07-28T05:12:50.793Z,6.50
2018-07-28T05:15:20.327Z,6.83
2018-07-28T05:17:49.803Z,6.73
2018-07-28T05:20:19.195Z,6.87
2018-07-28T05:22:48.006Z,7.00
2018-07-28T05:25:17.335Z,6.40
2018-07-28T05:27:46.728Z,7.23
2018-07-28T05:30:16.096Z,7.37
2018-07-28T05:32:45.703Z,6.93
2018-07-28T05:35:15.049Z,6.53
2018-07-28T05:37:44.455Z,7.07
2018-07-28T05:40:15.202Z,7.57
2018-07-28T05:42:44.521Z,7.80
2018-07-28T05:45:14.057Z,6.83
2018-07-28T05:47:43.305Z,6.87
2018-07-28T05:50:12.857Z,7.40
2018-07-28T05:52:42.875Z,7.83
2018-07-28T05:55:12.202Z,7.10
2018-07-28T05:57:41.851Z,6.70
2018-07-28T06:00:11.448Z,6.67
2018-07-28T06:02:41.082Z,6.73
2018-07-28T06:05:10.641Z,6.60
2018-07-28T06:07:40.179Z,6.73
2018-07-28T06:10:09.724Z,6.93
2018-07-28T06:12:39.508Z,6.37
2018-07-28T06:15:09.450Z,6.93
2018-07-28T06:17:38.824Z,6.90
2018-07-28T06:20:08.926Z,7.27
2018-07-28T06:23:09.334Z,7.50
2018-07-28T06:25:38.832Z,7.03
2018-07-28T06:28:08.461Z,7.00
2018-07-28T06:30:38.007Z,6.70
2018-07-28T06:33:07.611Z,6.03
2018-07-28T06:35:37.117Z,6.53
2018-07-28T06:38:06.654Z,6.20
2018-07-28T06:40:36.189Z,6.23
2018-07-28T06:43:05.210Z,6.30
2018-07-28T06:45:34.653Z,6.30
2018-07-28T06:48:04.258Z,6.30
2018-07-28T06:50:33.634Z,6.17
2018-07-28T06:53:03.079Z,5.90
2018-07-28T06:55:32.697Z,5.77
2018-07-28T06:58:02.265Z,6.07
2018-07-28T07:00:31.485Z,5.93
2018-07-28T07:03:00.310Z,6.10
2018-07-28T07:05:30.114Z,6.40
2018-07-28T07:07:59.763Z,6.13
2018-07-28T07:10:29.035Z,6.90
2018-07-28T07:12:57.924Z,6.00
2018-07-28T07:15:27.490Z,5.50
2018-07-28T07:17:57.355Z,6.47
2018-07-28T07:20:26.758Z,6.00
2018-07-28T07:22:56.312Z,6.20
2018-07-28T07:25:25.878Z,5.40
2018-07-28T07:27:55.540Z,6.30
2018-07-28T07:30:25.003Z,5.90
2018-07-28T07:32:54.494Z,6.30
2018-07-28T07:35:23.917Z,5.97
2018-07-28T07:37:53.201Z,5.63
2018-07-28T07:40:22.554Z,5.70
2018-07-28T07:42:51.833Z,5.80
2018-07-28T07:45:21.407Z,6.67
2018-07-28T07:47:50.627Z,5.90
2018-07-28T07:50:20.137Z,6.60
2018-07-28T07:52:49.945Z,6.03
2018-07-28T07:55:19.349Z,5.97
2018-07-28T07:57:48.807Z,6.10
2018-07-28T08:00:18.139Z,6.73
2018-07-28T08:02:47.323Z,6.07
2018-07-28T08:05:16.804Z,6.10
2018-07-28T08:07:46.234Z,5.97
2018-07-28T08:10:15.644Z,5.57
2018-07-28T08:12:45.168Z,6.40
2018-07-28T08:15:14.719Z,5.37
2018-07-28T08:17:44.241Z,5.50
2018-07-28T08:20:13.644Z,5.53
2018-07-28T08:22:43.147Z,5.97
2018-07-28T08:25:12.750Z,5.60
2018-07-28T08:27:42.178Z,5.87
2018-07-28T08:30:12.030Z,5.07
2018-07-28T08:32:41.697Z,5.73
2018-07-28T08:35:11.188Z,5.33
2018-07-28T08:37:40.761Z,5.27
2018-07-28T08:40:10.399Z,5.93
2018-07-28T08:42:39.985Z,5.30
2018-07-28T08:45:09.329Z,5.50
2018-07-28T08:47:38.959Z,5.87
2018-07-28T08:50:08.578Z,6.23
2018-07-28T08:52:38.116Z,5.70
2018-07-28T08:55:07.792Z,5.93
2018-07-28T08:57:37.209Z,5.50
2018-07-28T09:00:07.270Z,5.30
2018-07-28T09:02:36.691Z,5.20
2018-07-28T09:05:06.362Z,5.40
2018-07-28T09:07:35.721Z,5.33
2018-07-28T09:10:05.234Z,5.60
2018-07-28T09:12:34.704Z,6.00
2018-07-28T09:15:04.265Z,5.40
2018-07-28T09:17:33.819Z,5.90
2018-07-28T09:20:03.262Z,5.43
2018-07-28T09:22:32.876Z,5.60
2018-07-28T09:25:02.400Z,5.80
2018-07-28T09:27:31.933Z,5.20
2018-07-28T09:30:01.662Z,5.77
2018-07-28T09:32:31.864Z,5.23
2018-07-28T09:35:00.748Z,5.23
2018-07-28T09:37:30.173Z,5.77
2018-07-28T09:39:59.525Z,5.20
2018-07-28T09:42:29.993Z,5.43
2018-07-28T09:44:59.910Z,4.73
2018-07-28T09:47:29.447Z,5.30
2018-07-28T09:49:58.835Z,5.50
2018-07-28T09:52:28.341Z,4.83
2018-07-28T09:54:58.097Z,4.93
2018-07-28T09:57:26.912Z,4.30
2018-07-28T09:59:56.222Z,4.37
2018-07-28T10:02:25.659Z,4.57
2018-07-28T10:04:55.316Z,5.33
2018-07-28T10:07:25.474Z,4.57
2018-07-28T10:09:55.059Z,5.23
2018-07-28T10:12:24.498Z,4.90
2018-07-28T10:14:55.490Z,4.50
2018-07-28T10:17:25.587Z,5.10
2018-07-28T10:19:55.168Z,4.60
2018-07-28T10:22:24.569Z,5.00
2018-07-28T10:24:53.996Z,4.93
2018-07-28T10:27:23.389Z,4.80
2018-07-28T10:29:53.315Z,4.70
2018-07-28T10:32:22.750Z,4.60
2018-07-28T10:34:52.202Z,4.80
2018-07-28T10:37:21.661Z,4.60
2018-07-28T10:39:51.151Z,4.10
2018-07-28T10:42:20.626Z,4.27
2018-07-28T10:44:49.977Z,3.60
2018-07-28T10:47:22.432Z,4.20
2018-07-28T10:49:52.498Z,4.50
2018-07-28T10:52:22.009Z,5.00
2018-07-28T10:54:52.136Z,4.20
2018-07-28T10:57:24.231Z,4.73
2018-07-28T10:59:54.612Z,4.93
2018-07-28T11:02:24.208Z,5.00
2018-07-28T11:04:53.888Z,4.83
2018-07-28T11:07:23.824Z,4.87
2018-07-28T11:09:53.233Z,4.90
2018-07-28T11:12:23.058Z,4.60
2018-07-28T11:14:52.585Z,4.70
2018-07-28T11:17:22.096Z,5.17
2018-07-28T11:19:51.405Z,4.80
2018-07-28T11:22:21.011Z,5.20
2018-07-28T11:24:50.752Z,5.30
2018-07-28T11:27:20.432Z,8.23
2018-07-28T11:29:49.731Z,4.77
2018-07-28T11:32:30.068Z,5.30
2018-07-28T11:35:10.216Z,5.70
2018-07-28T11:37:52.657Z,5.70
2018-07-28T11:41:36.070Z,5.53
2018-07-28T11:44:15.930Z,6.20
2018-07-28T11:46:45.388Z,5.50
2018-07-28T11:49:14.838Z,5.80
2018-07-28T11:51:44.300Z,6.17
2018-07-28T11:54:13.971Z,5.63
2018-07-28T11:56:42.975Z,5.87
2018-07-28T11:59:12.358Z,5.67
2018-07-28T12:01:41.865Z,4.77
2018-07-28T12:04:11.308Z,5.20
2018-07-28T12:06:40.714Z,5.03
2018-07-28T12:09:10.148Z,4.60
2018-07-28T12:11:39.485Z,5.20
2018-07-28T12:14:09.046Z,4.90
2018-07-28T12:16:38.659Z,4.87
2018-07-28T12:19:07.958Z,4.60
2018-07-28T12:21:37.455Z,4.40
2018-07-28T12:24:06.912Z,4.57
2018-07-28T12:26:36.308Z,4.60
2018-07-28T12:29:05.506Z,4.67
2018-07-28T12:31:35.108Z,5.80
2018-07-28T12:34:04.309Z,4.50
2018-07-28T12:36:33.840Z,5.27
2018-07-28T12:39:03.281Z,4.30
2018-07-28T12:41:33.143Z,3.50
2018-07-28T12:44:02.586Z,4.50
2018-07-28T12:46:32.075Z,4.40
2018-07-28T12:49:01.617Z,4.40
2018-07-28T12:51:31.025Z,4.40
2018-07-28T12:54:00.815Z,4.57
2018-07-28T12:56:30.388Z,4.20
2018-07-28T12:58:59.767Z,4.30
2018-07-28T13:01:29.416Z,3.60
2018-07-28T13:03:58.883Z,3.20
2018-07-28T13:06:28.496Z,3.23
2018-07-28T13:08:58.305Z,3.77
2018-07-28T13:11:28.233Z,2.70
2018-07-28T13:13:57.615Z,3.10
2018-07-28T13:16:27.373Z,2.37
2018-07-28T13:18:57.207Z,2.93
2018-07-28T13:21:26.803Z,3.37
2018-07-28T13:23:56.781Z,3.90
2018-07-28T13:26:26.396Z,3.40
2018-07-28T13:28:55.978Z,3.60
2018-07-28T13:31:24.848Z,3.40
2018-07-28T13:33:54.610Z,3.30
2018-07-28T13:36:24.163Z,3.70
2018-07-28T13:38:53.775Z,3.47
2018-07-28T13:41:23.305Z,3.30
2018-07-28T13:43:52.680Z,3.47
2018-07-28T13:46:22.058Z,3.53
2018-07-28T13:48:51.472Z,4.10
2018-07-28T13:51:20.955Z,4.00
2018-07-28T13:53:59.073Z,3.70
2018-07-28T13:56:28.854Z,3.93
2018-07-28T13:58:58.205Z,3.27
2018-07-28T14:01:27.716Z,3.73
2018-07-28T14:03:57.331Z,3.70
2018-07-28T14:06:26.675Z,3.80
2018-07-28T14:08:56.057Z,3.60
2018-07-28T14:11:25.437Z,3.67
2018-07-28T14:13:54.828Z,3.90
2018-07-28T14:16:24.418Z,4.10
2018-07-28T14:18:54.035Z,4.10
2018-07-28T14:21:23.474Z,4.00
2018-07-28T14:23:53.201Z,3.60
2018-07-28T14:26:22.634Z,3.40
2018-07-28T14:28:52.155Z,3.60
2018-07-28T14:31:21.754Z,3.80
2018-07-28T14:33:52.348Z,3.67
2018-07-28T14:36:22.504Z,2.80
2018-07-28T14:38:52.129Z,2.70
2018-07-28T14:41:21.852Z,3.40
2018-07-28T14:43:51.392Z,3.03
2018-07-28T14:46:20.890Z,3.20
2018-07-28T14:48:50.682Z,3.33
2018-07-28T14:51:20.655Z,3.10
2018-07-28T14:53:50.187Z,3.30
2018-07-28T14:56:19.563Z,3.27
2018-07-28T14:58:49.133Z,3.40
2018-07-28T15:01:18.578Z,3.40
2018-07-28T15:03:48.230Z,2.97
2018-07-28T15:06:17.762Z,3.33
2018-07-28T15:08:47.288Z,3.27
2018-07-28T15:11:16.823Z,3.00
2018-07-28T15:13:46.458Z,3.43
2018-07-28T15:16:16.171Z,3.40
2018-07-28T15:18:45.743Z,3.13
2018-07-28T15:21:15.276Z,3.40
2018-07-28T15:23:44.618Z,3.57
2018-07-28T15:26:14.274Z,3.17
2018-07-28T15:28:43.738Z,3.23
2018-07-28T15:31:14.650Z,3.63
2018-07-28T15:33:43.991Z,3.10
2018-07-28T15:36:13.544Z,2.97
2018-07-28T15:38:43.165Z,2.93
2018-07-28T15:41:12.647Z,3.13
2018-07-28T15:43:47.251Z,2.50
2018-07-28T15:46:17.025Z,3.23
2018-07-28T15:48:46.429Z,3.43
2018-07-28T15:51:16.822Z,3.30
2018-07-28T15:53:46.648Z,3.27
2018-07-28T15:56:16.107Z,3.50
2018-07-28T15:58:45.633Z,3.37
2018-07-28T16:01:15.108Z,3.63
2018-07-28T16:03:44.523Z,4.87
2018-07-28T16:06:14.084Z,3.10
2018-07-28T16:08:43.566Z,7.80
2018-07-28T16:11:13.193Z,6.50
2018-07-28T16:13:42.670Z,11.40
2018-07-28T16:16:12.243Z,4.13
2018-07-28T16:18:41.687Z,4.87
2018-07-28T16:21:11.330Z,3.67
2018-07-28T16:23:41.261Z,2.87
2018-07-28T16:26:10.834Z,3.20
2018-07-28T16:28:40.289Z,3.33
2018-07-28T16:31:09.688Z,3.30
2018-07-28T16:33:39.016Z,3.00
2018-07-28T16:36:08.591Z,3.40
2018-07-28T16:38:38.089Z,3.17
2018-07-28T16:41:07.549Z,3.57
2018-07-28T16:43:37.067Z,3.53
2018-07-28T16:46:06.796Z,2.80
2018-07-28T16:48:36.347Z,3.27
2018-07-28T16:51:05.678Z,2.40
2018-07-28T16:53:35.020Z,2.80
2018-07-28T16:56:06.218Z,3.30
2018-07-28T16:58:35.352Z,4.10
2018-07-28T17:01:04.873Z,3.97
2018-07-28T17:03:34.334Z,4.07
2018-07-28T17:06:03.909Z,4.00
2018-07-28T17:08:33.161Z,3.97
2018-07-28T17:11:02.677Z,4.00
2018-07-28T17:13:32.044Z,4.00
2018-07-28T17:16:01.962Z,4.17
2018-07-28T17:18:31.938Z,4.30
2018-07-28T17:21:02.995Z,3.27
2018-07-28T17:23:32.955Z,3.30
2018-07-28T17:26:03.681Z,3.60
2018-07-28T17:28:33.303Z,3.60
2018-07-28T17:31:03.072Z,4.13
2018-07-28T17:33:32.419Z,3.93
2018-07-28T17:36:01.936Z,2.60
2018-07-28T17:38:31.604Z,3.07
2018-07-28T17:41:01.047Z,2.33
2018-07-28T17:43:30.570Z,2.83
2018-07-28T17:46:00.017Z,3.10
2018-07-28T17:48:29.550Z,3.00
2018-07-28T17:50:59.322Z,2.50
2018-07-28T17:53:28.973Z,2.93
2018-07-28T17:55:58.589Z,3.17
2018-07-28T17:58:28.694Z,3.00
2018-07-28T18:00:58.170Z,3.13
2018-07-28T18:03:27.813Z,3.23
2018-07-28T18:05:57.571Z,3.07
2018-07-28T18:08:27.256Z,3.50
2018-07-28T18:10:56.715Z,3.70
2018-07-28T18:13:26.002Z,4.30
2018-07-28T18:15:55.623Z,3.67
2018-07-28T18:18:25.299Z,3.50
2018-07-28T18:20:54.947Z,3.80
2018-07-28T18:23:24.403Z,3.33
2018-07-28T18:25:53.458Z,3.90
2018-07-28T18:28:23.278Z,4.07
2018-07-28T18:30:52.803Z,4.77
2018-07-28T18:33:22.536Z,4.90
2018-07-28T18:35:51.867Z,4.80
2018-07-28T18:38:21.352Z,4.50
2018-07-28T18:40:50.896Z,5.00
2018-07-28T18:43:20.458Z,5.50
2018-07-28T18:45:49.937Z,5.77
2018-07-28T18:48:19.454Z,6.50
2018-07-28T18:50:49.332Z,6.40
2018-07-28T18:53:18.185Z,5.87
2018-07-28T18:55:47.568Z,6.10
2018-07-28T18:58:17.359Z,6.40
2018-07-28T19:00:47.067Z,6.03
2018-07-28T19:03:16.696Z,6.00
2018-07-28T19:05:46.186Z,5.53
2018-07-28T19:08:15.942Z,6.07
2018-07-28T19:10:45.488Z,5.30
2018-07-28T19:13:20.201Z,7.20
2018-07-28T19:15:49.658Z,6.10
2018-07-28T19:18:24.672Z,13.10
2018-07-28T19:20:55.914Z,7.30
2018-07-28T19:23:30.459Z,5.80
2018-07-28T19:26:00.119Z,6.40
2018-07-28T19:28:34.557Z,5.77
2018-07-28T19:31:04.317Z,6.20
2018-07-28T19:33:33.643Z,6.57
2018-07-28T19:36:08.248Z,6.13
2018-07-28T19:38:37.889Z,6.10
2018-07-28T19:41:07.616Z,6.47
2018-07-28T19:43:37.571Z,6.20
2018-07-28T19:46:07.188Z,6.30
2018-07-28T19:48:36.245Z,6.43
2018-07-28T19:51:05.677Z,6.40
2018-07-28T19:53:34.462Z,6.70
2018-07-28T19:56:04.025Z,5.77
2018-07-28T19:58:33.389Z,6.43
2018-07-28T20:01:03.014Z,6.83
2018-07-28T20:03:32.575Z,6.60
2018-07-28T20:06:02.201Z,7.00
2018-07-28T20:08:31.617Z,6.73
2018-07-28T20:11:01.543Z,7.47
2018-07-28T20:13:31.263Z,6.73
2018-07-28T20:16:00.854Z,7.27
2018-07-28T20:18:30.380Z,7.60
2018-07-28T20:20:59.856Z,7.30
2018-07-28T20:23:29.450Z,7.17
2018-07-28T20:25:58.846Z,6.83
2018-07-28T20:28:28.325Z,7.53
2018-07-28T20:30:57.793Z,6.77
2018-07-28T20:33:27.293Z,6.73
2018-07-28T20:35:57.106Z,6.47
2018-07-28T20:38:26.763Z,6.77
2018-07-28T20:40:56.302Z,6.40
2018-07-28T20:43:25.967Z,6.50
2018-07-28T20:45:55.429Z,6.30
2018-07-28T20:48:25.224Z,6.70
2018-07-28T20:50:55.191Z,7.97
2018-07-28T20:53:24.693Z,8.70
2018-07-28T20:55:54.236Z,9.17
2018-07-28T20:58:24.178Z,8.77
2018-07-28T21:00:53.795Z,8.53
2018-07-28T21:03:23.364Z,7.20
2018-07-28T21:05:52.960Z,7.20
2018-07-28T21:08:22.738Z,7.47
2018-07-28T21:10:52.920Z,7.13
2018-07-28T21:13:22.592Z,7.97
2018-07-28T21:15:52.407Z,7.10
2018-07-28T21:18:23.127Z,7.23
2018-07-28T21:20:52.820Z,7.70
2018-07-28T21:23:22.589Z,7.63
2018-07-28T21:25:51.979Z,9.03
2018-07-28T21:28:21.585Z,9.50
2018-07-28T21:30:51.274Z,7.83
2018-07-28T21:33:20.894Z,7.20
2018-07-28T21:35:50.455Z,7.23
2018-07-28T21:38:19.997Z,7.43
2018-07-28T21:40:49.769Z,7.50
2018-07-28T21:43:19.107Z,7.90
2018-07-28T21:45:54.219Z,6.83
2018-07-28T21:48:23.688Z,7.30
2018-07-28T21:50:53.264Z,7.57
2018-07-28T21:53:22.862Z,6.83
2018-07-28T21:55:52.450Z,7.60
2018-07-28T21:58:22.221Z,8.50
2018-07-28T22:01:02.351Z,7.43
2018-07-28T22:03:32.082Z,7.20
2018-07-28T22:06:01.351Z,7.90
2018-07-28T22:08:30.771Z,6.83
2018-07-28T22:11:00.584Z,7.80
2018-07-28T22:13:29.923Z,7.43
2018-07-28T22:15:59.497Z,7.57
2018-07-28T22:18:28.916Z,7.80
2018-07-28T22:20:58.595Z,7.63
2018-07-28T22:23:28.037Z,7.63
2018-07-28T22:25:57.587Z,7.43
2018-07-28T22:28:26.909Z,7.20
2018-07-28T22:30:56.266Z,7.23
2018-07-28T22:33:25.654Z,7.47
2018-07-28T22:35:55.411Z,7.47
2018-07-28T22:38:24.938Z,6.47
2018-07-28T22:40:54.472Z,6.53
2018-07-28T22:43:23.830Z,7.53
2018-07-28T22:45:53.229Z,7.00
2018-07-28T22:48:23.073Z,7.13
2018-07-28T22:50:52.657Z,7.17
2018-07-28T22:53:22.330Z,6.80
2018-07-28T22:55:51.919Z,7.57
2018-07-28T22:58:21.426Z,6.73
2018-07-28T23:00:50.940Z,6.53
2018-07-28T23:03:20.446Z,6.33
2018-07-28T23:05:49.257Z,6.30
2018-07-28T23:08:18.723Z,6.60
2018-07-28T23:10:48.619Z,6.27
2018-07-28T23:13:18.562Z,7.03
2018-07-28T23:15:48.216Z,6.30
2018-07-28T23:18:18.181Z,7.00
2018-07-28T23:20:47.879Z,6.60
2018-07-28T23:23:17.426Z,6.40
2018-07-28T23:25:47.037Z,6.63
2018-07-28T23:28:16.581Z,6.97
2018-07-28T23:30:46.273Z,6.83
2018-07-28T23:33:15.710Z,6.97
2018-07-28T23:35:45.560Z,6.60
2018-07-28T23:38:14.898Z,6.50
2018-07-28T23:40:44.288Z,7.07
2018-07-28T23:43:13.677Z,7.23
2018-07-28T23:45:43.122Z,7.63
2018-07-28T23:48:12.908Z,8.07
2018-07-28T23:50:42.538Z,7.47
2018-07-28T23:53:12.373Z,7.03
2018-07-28T23:55:41.957Z,8.00
2018-07-28T23:58:11.580Z,8.07
